createdAt,value
2023-06-04T00:02:11.432Z,12.81
2023-06-04T00:04:38.061Z,12.82
2023-06-04T00:07:04.916Z,12.81
2023-06-04T00:09:31.584Z,12.85
2023-06-04T00:11:58.754Z,12.84
2023-06-04T00:14:25.460Z,12.75
2023-06-04T00:16:52.052Z,12.65
2023-06-04T00:19:18.663Z,12.54
2023-06-04T00:21:46.502Z,12.45
2023-06-04T00:24:16.119Z,12.39
2023-06-04T00:26:42.778Z,12.32
2023-06-04T00:29:09.545Z,12.33
2023-06-04T00:31:36.740Z,12.29
2023-06-04T00:34:05.524Z,12.27
2023-06-04T00:36:32.081Z,12.21
2023-06-04T00:38:58.683Z,12.17
2023-06-04T00:41:25.223Z,12.11
2023-06-04T00:43:57.388Z,12.04
2023-06-04T00:46:26.495Z,12.00
2023-06-04T00:48:54.324Z,12.01
2023-06-04T00:51:24.242Z,11.96
2023-06-04T00:53:52.233Z,11.91
2023-06-04T00:56:19.589Z,11.80
2023-06-04T00:58:47.404Z,11.69
2023-06-04T01:01:37.802Z,11.61
2023-06-04T01:04:10.305Z,11.50
2023-06-04T01:06:40.700Z,11.41
2023-06-04T01:09:08.755Z,11.36
2023-06-04T01:11:36.668Z,11.34
2023-06-04T01:14:09.664Z,11.26
2023-06-04T01:16:42.534Z,11.21
2023-06-04T01:19:33.904Z,11.17
2023-06-04T01:22:09.412Z,11.15
2023-06-04T01:24:38.767Z,11.12
2023-06-04T01:27:07.545Z,11.09
2023-06-04T01:29:37.250Z,11.11
2023-06-04T01:32:04.907Z,11.10
2023-06-04T01:34:31.478Z,11.07
2023-06-04T01:36:58.183Z,11.08
2023-06-04T01:39:24.704Z,11.07
2023-06-04T01:41:51.276Z,11.04
2023-06-04T01:44:17.809Z,11.01
2023-06-04T01:46:44.388Z,10.95
2023-06-04T01:49:11.824Z,10.93
2023-06-04T01:51:38.408Z,10.93
2023-06-04T01:54:05.048Z,10.98
2023-06-04T01:56:31.622Z,10.93
2023-06-04T01:58:58.251Z,10.87
2023-06-04T02:01:24.846Z,10.79
2023-06-04T02:03:52.007Z,10.71
2023-06-04T02:06:18.653Z,10.64
2023-06-04T02:08:45.169Z,10.66
2023-06-04T02:11:11.686Z,10.63
2023-06-04T02:13:38.300Z,10.56
2023-06-04T02:16:05.237Z,10.55
2023-06-04T02:18:31.791Z,10.47
2023-06-04T02:20:59.609Z,10.40
2023-06-04T02:23:26.320Z,10.42
2023-06-04T02:25:52.924Z,10.43
2023-06-04T02:28:19.560Z,10.39
2023-06-04T02:30:49.709Z,10.41
2023-06-04T02:33:16.588Z,10.33
2023-06-04T02:35:43.338Z,10.26
2023-06-04T02:38:09.887Z,10.23
2023-06-04T02:40:36.576Z,10.18
2023-06-04T02:43:03.172Z,10.18
2023-06-04T02:45:29.958Z,10.18
2023-06-04T02:47:56.728Z,10.20
2023-06-04T02:50:23.390Z,10.15
2023-06-04T02:52:50.057Z,10.09
2023-06-04T02:55:16.814Z,10.04
2023-06-04T02:57:44.152Z,9.97
2023-06-04T03:00:13.706Z,9.94
2023-06-04T03:02:48.351Z,9.91
2023-06-04T03:05:16.411Z,9.89
2023-06-04T03:07:45.946Z,9.89
2023-06-04T03:10:14.044Z,9.85
2023-06-04T03:12:40.919Z,9.87
2023-06-04T03:15:08.176Z,9.86
2023-06-04T03:17:34.806Z,9.89
2023-06-04T03:20:01.455Z,9.89
2023-06-04T03:22:29.454Z,9.88
2023-06-04T03:24:56.286Z,9.83
2023-06-04T03:27:23.131Z,9.77
2023-06-04T03:29:49.707Z,9.82
2023-06-04T03:32:17.248Z,9.87
2023-06-04T03:34:44.384Z,9.81
2023-06-04T03:37:11.066Z,9.77
2023-06-04T03:39:37.630Z,9.78
2023-06-04T03:42:04.470Z,9.75
2023-06-04T03:44:31.095Z,9.73
2023-06-04T03:46:57.704Z,9.74
2023-06-04T03:49:24.338Z,9.79
2023-06-04T03:51:50.949Z,9.86
2023-06-04T03:54:20.381Z,9.94
2023-06-04T03:56:47.665Z,10.06
2023-06-04T03:59:14.293Z,10.18
2023-06-04T04:01:40.846Z,10.35
2023-06-04T04:04:07.436Z,10.47
2023-06-04T04:06:34.257Z,10.56
2023-06-04T04:09:00.898Z,10.66
2023-06-04T04:11:27.468Z,10.66
2023-06-04T04:13:54.004Z,10.71
2023-06-04T04:16:20.750Z,10.82
2023-06-04T04:18:47.548Z,10.95
2023-06-04T04:21:14.232Z,11.14
2023-06-04T04:23:43.704Z,11.35
2023-06-04T04:26:11.255Z,11.57
2023-06-04T04:28:38.249Z,11.77
2023-06-04T04:31:05.977Z,11.93
2023-06-04T04:33:33.512Z,12.07
2023-06-04T04:36:01.027Z,12.21
2023-06-04T04:38:29.805Z,12.36
2023-06-04T04:40:56.583Z,12.52
2023-06-04T04:43:38.697Z,12.69
2023-06-04T04:46:05.845Z,12.78
2023-06-04T04:48:32.886Z,12.82
2023-06-04T04:50:59.434Z,12.80
2023-06-04T04:53:27.253Z,12.91
2023-06-04T04:55:53.838Z,13.10
2023-06-04T04:58:20.538Z,13.34
2023-06-04T05:00:48.968Z,13.57
2023-06-04T05:03:15.677Z,13.89
2023-06-04T05:05:42.398Z,14.24
2023-06-04T05:08:09.336Z,14.66
2023-06-04T05:10:37.151Z,15.04
2023-06-04T05:13:04.163Z,15.29
2023-06-04T05:15:30.757Z,15.44
2023-06-04T05:17:57.581Z,15.51
2023-06-04T05:20:24.368Z,15.53
2023-06-04T05:22:51.176Z,15.53
2023-06-04T05:25:17.846Z,15.54
2023-06-04T05:27:44.879Z,15.61
2023-06-04T05:30:12.278Z,15.81
2023-06-04T05:32:42.074Z,15.93
2023-06-04T05:35:09.730Z,15.97
2023-06-04T05:37:39.153Z,15.97
2023-06-04T05:40:06.825Z,16.02
2023-06-04T05:42:33.857Z,16.02
2023-06-04T05:45:00.674Z,16.21
2023-06-04T05:47:30.076Z,16.12
2023-06-04T05:49:57.333Z,16.19
2023-06-04T05:52:24.436Z,16.13
2023-06-04T05:54:51.252Z,16.10
2023-06-04T05:57:17.787Z,16.28
2023-06-04T05:59:44.340Z,16.47
2023-06-04T06:02:10.854Z,16.66
2023-06-04T06:04:37.804Z,16.82
2023-06-04T06:07:04.906Z,16.96
2023-06-04T06:09:31.522Z,17.13
2023-06-04T06:11:59.217Z,17.26
2023-06-04T06:14:25.802Z,17.35
2023-06-04T06:16:52.375Z,17.53
2023-06-04T06:19:19.406Z,17.71
2023-06-04T06:21:46.229Z,17.80
2023-06-04T06:24:13.313Z,17.95
2023-06-04T06:26:39.968Z,17.99
2023-06-04T06:29:06.766Z,18.01
2023-06-04T06:31:33.456Z,18.17
2023-06-04T06:34:00.111Z,18.21
2023-06-04T06:36:27.536Z,18.55
2023-06-04T06:38:54.105Z,18.83
2023-06-04T06:41:20.931Z,19.03
2023-06-04T06:43:47.542Z,19.12
2023-06-04T06:46:14.120Z,19.35
2023-06-04T06:48:41.854Z,19.54
2023-06-04T06:51:08.695Z,19.67
2023-06-04T06:53:36.031Z,19.78
2023-06-04T06:56:02.643Z,19.62
2023-06-04T06:58:29.205Z,19.64
2023-06-04T07:00:57.634Z,19.67
2023-06-04T07:03:24.370Z,19.72
2023-06-04T07:05:50.936Z,19.99
2023-06-04T07:08:17.474Z,20.18
2023-06-04T07:10:44.164Z,20.35
2023-06-04T07:13:10.817Z,20.33
2023-06-04T07:15:37.351Z,20.45
2023-06-04T07:18:04.179Z,20.78
2023-06-04T07:20:31.815Z,20.84
2023-06-04T07:22:58.396Z,20.99
2023-06-04T07:25:25.122Z,21.81
2023-06-04T07:27:51.766Z,23.41
2023-06-04T07:30:19.727Z,24.18
2023-06-04T07:32:49.462Z,25.12
2023-06-04T07:35:16.479Z,26.13
2023-06-04T07:37:45.432Z,26.70
2023-06-04T07:40:12.861Z,26.66
2023-06-04T07:42:39.382Z,26.82
2023-06-04T07:45:06.622Z,27.80
2023-06-04T07:47:33.230Z,28.15
2023-06-04T07:50:03.372Z,28.74
2023-06-04T07:52:30.607Z,29.07
2023-06-04T07:54:57.880Z,29.25
2023-06-04T07:57:24.669Z,29.88
2023-06-04T07:59:52.476Z,31.04
2023-06-04T08:02:19.654Z,30.50
2023-06-04T08:04:47.487Z,30.67
2023-06-04T08:07:14.116Z,30.36
2023-06-04T08:09:41.030Z,30.47
2023-06-04T08:12:09.960Z,30.28
2023-06-04T08:14:37.469Z,30.42
2023-06-04T08:17:04.266Z,30.38
2023-06-04T08:19:30.946Z,31.23
2023-06-04T08:21:57.855Z,32.48
2023-06-04T08:24:24.408Z,32.04
2023-06-04T08:26:51.441Z,31.67
2023-06-04T08:29:18.260Z,32.43
2023-06-04T08:31:44.887Z,33.82
2023-06-04T08:34:11.592Z,32.83
2023-06-04T08:36:38.131Z,33.12
2023-06-04T08:39:04.678Z,34.71
2023-06-04T08:41:45.858Z,34.95
2023-06-04T08:44:12.586Z,35.61
2023-06-04T08:46:43.188Z,36.17
2023-06-04T08:49:10.102Z,35.24
2023-06-04T08:51:38.564Z,35.26
2023-06-04T08:54:09.275Z,35.98
2023-06-04T08:56:36.893Z,36.07
2023-06-04T08:59:08.757Z,36.33
2023-06-04T09:01:38.171Z,34.88
2023-06-04T09:04:08.735Z,34.87
2023-06-04T09:06:38.841Z,35.54
2023-06-04T09:09:08.403Z,34.38
2023-06-04T09:11:39.312Z,33.16
2023-06-04T09:14:09.811Z,33.07
2023-06-04T09:16:47.515Z,32.49
2023-06-04T09:19:14.836Z,33.36
2023-06-04T09:21:56.306Z,33.61
2023-06-04T09:24:39.687Z,32.17
2023-06-04T09:27:14.119Z,33.09
2023-06-04T09:29:41.944Z,35.28
2023-06-04T09:32:08.532Z,34.51
2023-06-04T09:34:37.540Z,35.70
2023-06-04T09:37:05.040Z,35.21
2023-06-04T09:39:31.617Z,35.36
2023-06-04T09:42:00.670Z,35.81
2023-06-04T09:44:27.714Z,36.40
2023-06-04T09:46:56.407Z,36.97
2023-06-04T09:49:23.007Z,37.77
2023-06-04T09:51:49.992Z,38.02
2023-06-04T09:54:17.612Z,37.76
2023-06-04T09:56:44.262Z,36.89
2023-06-04T09:59:11.098Z,35.52
2023-06-04T10:01:44.256Z,36.20
2023-06-04T10:04:14.274Z,36.14
2023-06-04T10:06:42.726Z,36.97
2023-06-04T10:09:10.475Z,37.20
2023-06-04T10:11:45.767Z,38.71
2023-06-04T10:14:24.847Z,38.56
2023-06-04T10:16:52.852Z,37.59
2023-06-04T10:19:19.874Z,36.30
2023-06-04T10:21:47.002Z,34.72
2023-06-04T10:24:15.334Z,36.34
2023-06-04T10:26:43.569Z,37.20
2023-06-04T10:29:11.809Z,35.69
2023-06-04T10:31:38.709Z,35.06
2023-06-04T10:34:05.322Z,34.29
2023-06-04T10:36:31.947Z,33.98
2023-06-04T10:38:58.546Z,33.94
2023-06-04T10:41:26.032Z,33.21
2023-06-04T10:44:01.778Z,33.15
2023-06-04T10:46:40.325Z,33.33
2023-06-04T10:49:06.951Z,33.65
2023-06-04T10:51:34.767Z,35.03
2023-06-04T10:54:02.941Z,37.07
2023-06-04T10:56:33.214Z,38.11
2023-06-04T10:59:00.630Z,37.99
2023-06-04T11:01:29.536Z,37.97
2023-06-04T11:03:56.672Z,37.77
2023-06-04T11:06:24.209Z,37.54
2023-06-04T11:08:50.963Z,37.63
2023-06-04T11:11:17.900Z,37.75
2023-06-04T11:13:44.752Z,37.38
2023-06-04T11:16:22.031Z,37.24
2023-06-04T11:18:56.975Z,35.53
2023-06-04T11:21:26.938Z,36.18
2023-06-04T11:24:00.710Z,37.08
2023-06-04T11:26:36.744Z,37.69
2023-06-04T11:29:09.477Z,38.11
2023-06-04T11:31:46.901Z,38.31
2023-06-04T11:34:30.151Z,37.96
2023-06-04T11:36:56.963Z,37.80
2023-06-04T11:39:24.018Z,38.40
2023-06-04T11:41:52.469Z,38.05
2023-06-04T11:44:20.885Z,37.85
2023-06-04T11:46:49.648Z,38.39
2023-06-04T11:49:17.107Z,38.81
2023-06-04T11:51:53.387Z,37.74
2023-06-04T11:54:22.088Z,35.15
2023-06-04T11:56:52.548Z,34.15
2023-06-04T11:59:19.809Z,35.73
2023-06-04T12:01:47.805Z,36.08
2023-06-04T12:04:19.760Z,36.26
2023-06-04T12:06:57.618Z,35.78
2023-06-04T12:09:28.235Z,36.00
2023-06-04T12:12:01.820Z,35.84
2023-06-04T12:14:29.785Z,36.17
2023-06-04T12:17:01.547Z,35.56
2023-06-04T12:19:29.094Z,34.06
2023-06-04T12:22:08.808Z,32.17
2023-06-04T12:24:47.379Z,31.36
2023-06-04T12:27:13.892Z,30.97
2023-06-04T12:29:40.900Z,30.49
2023-06-04T12:32:12.287Z,29.97
2023-06-04T12:34:41.255Z,29.47
2023-06-04T12:37:08.954Z,29.45
2023-06-04T12:39:38.829Z,29.49
2023-06-04T12:42:11.748Z,28.97
2023-06-04T12:44:41.698Z,28.73
2023-06-04T12:47:09.342Z,28.86
2023-06-04T12:49:36.450Z,28.48
2023-06-04T12:52:03.382Z,28.55
2023-06-04T12:54:30.034Z,28.74
2023-06-04T12:56:59.974Z,28.75
2023-06-04T12:59:28.004Z,28.44
2023-06-04T13:01:55.937Z,28.47
2023-06-04T13:04:24.561Z,28.52
2023-06-04T13:06:53.403Z,28.49
2023-06-04T13:09:21.588Z,27.76
2023-06-04T13:11:48.225Z,27.64
2023-06-04T13:14:14.802Z,27.34
2023-06-04T13:16:42.103Z,26.99
2023-06-04T13:19:09.256Z,26.34
2023-06-04T13:21:36.532Z,25.95
2023-06-04T13:24:03.406Z,25.87
2023-06-04T13:26:29.983Z,26.18
2023-06-04T13:28:56.680Z,26.13
2023-06-04T13:31:23.293Z,25.88
2023-06-04T13:33:49.894Z,25.72
2023-06-04T13:36:16.484Z,25.87
2023-06-04T13:38:44.279Z,25.82
2023-06-04T13:41:11.218Z,25.72
2023-06-04T13:43:37.907Z,25.93
2023-06-04T13:46:05.035Z,26.06
2023-06-04T13:48:31.784Z,25.78
2023-06-04T13:50:58.361Z,25.48
2023-06-04T13:53:24.922Z,25.51
2023-06-04T13:55:58.600Z,25.43
2023-06-04T13:58:28.867Z,25.46
2023-06-04T14:00:55.783Z,25.70
2023-06-04T14:03:22.665Z,25.98
2023-06-04T14:05:49.483Z,25.39
2023-06-04T14:08:16.102Z,25.23
2023-06-04T14:10:42.852Z,25.16
2023-06-04T14:13:10.154Z,25.33
2023-06-04T14:15:36.950Z,25.02
2023-06-04T14:18:05.070Z,24.65
2023-06-04T14:20:31.829Z,24.50
2023-06-04T14:22:58.462Z,24.54
2023-06-04T14:25:25.167Z,24.64
2023-06-04T14:27:52.025Z,24.41
2023-06-04T14:33:57.842Z,24.68
2023-06-04T14:36:24.959Z,24.49
2023-06-04T14:42:20.255Z,24.26
2023-06-04T14:44:47.076Z,24.22
2023-06-04T14:47:13.784Z,24.30
2023-06-04T14:49:40.540Z,24.41
2023-06-04T14:52:07.395Z,24.31
2023-06-04T14:54:35.854Z,24.33
2023-06-04T14:57:03.023Z,24.17
2023-06-04T14:59:29.717Z,24.20
2023-06-04T15:01:56.627Z,24.18
2023-06-04T15:04:23.731Z,24.25
2023-06-04T15:06:50.941Z,24.42
2023-06-04T15:09:17.477Z,24.46
2023-06-04T15:11:44.340Z,24.67
2023-06-04T15:14:10.937Z,24.72
2023-06-04T15:16:37.498Z,24.75
2023-06-04T15:19:04.644Z,24.60
2023-06-04T15:21:31.286Z,24.59
2023-06-04T15:23:57.933Z,24.78
2023-06-04T15:26:25.882Z,24.86
2023-06-04T15:28:57.786Z,24.72
2023-06-04T15:31:24.480Z,24.66
2023-06-04T15:33:51.507Z,24.65
2023-06-04T15:36:18.097Z,24.69
2023-06-04T15:38:44.680Z,24.62
2023-06-04T15:41:11.371Z,24.36
2023-06-04T15:43:37.906Z,24.16
2023-06-04T15:46:04.566Z,23.97
2023-06-04T15:48:31.641Z,23.93
2023-06-04T15:50:58.388Z,23.98
2023-06-04T15:53:25.031Z,24.09
2023-06-04T15:55:51.946Z,24.08
2023-06-04T15:58:18.524Z,24.14
2023-06-04T16:00:45.396Z,24.16
2023-06-04T16:03:12.016Z,24.16
2023-06-04T16:05:38.603Z,24.16
2023-06-04T16:08:05.257Z,23.96
2023-06-04T16:10:33.057Z,23.87
2023-06-04T16:12:59.637Z,23.70
2023-06-04T16:15:26.258Z,23.55
2023-06-04T16:17:52.931Z,23.49
2023-06-04T16:20:20.152Z,23.42
2023-06-04T16:22:47.134Z,23.41
2023-06-04T16:25:18.547Z,23.37
2023-06-04T16:27:48.457Z,23.38
2023-06-04T16:30:15.327Z,23.34
2023-06-04T16:32:42.128Z,23.37
2023-06-04T16:35:10.462Z,23.26
2023-06-04T16:37:38.244Z,23.20
2023-06-04T16:40:05.722Z,23.09
2023-06-04T16:42:32.530Z,23.00
2023-06-04T16:44:59.141Z,22.97
2023-06-04T16:47:25.740Z,22.83
2023-06-04T16:49:53.219Z,22.69
2023-06-04T16:52:19.835Z,22.57
2023-06-04T16:54:47.278Z,22.48
2023-06-04T16:57:14.006Z,22.43
2023-06-04T16:59:47.088Z,22.42
2023-06-04T17:02:14.703Z,22.39
2023-06-04T17:04:43.085Z,22.36
2023-06-04T17:07:11.053Z,22.30
2023-06-04T17:09:38.592Z,22.27
2023-06-04T17:12:05.600Z,22.20
2023-06-04T17:14:32.146Z,22.13
2023-06-04T17:16:58.733Z,22.09
2023-06-04T17:19:25.381Z,22.07
2023-06-04T17:21:51.952Z,22.09
2023-06-04T17:24:18.668Z,22.05
2023-06-04T17:26:45.517Z,22.06
2023-06-04T17:29:12.032Z,22.06
2023-06-04T17:31:38.638Z,22.09
2023-06-04T17:34:05.147Z,22.09
2023-06-04T17:36:31.747Z,22.07
2023-06-04T17:38:58.298Z,22.03
2023-06-04T17:41:24.921Z,21.93
2023-06-04T17:43:51.468Z,21.87
2023-06-04T17:46:18.010Z,21.77
2023-06-04T17:48:44.667Z,21.64
2023-06-04T17:51:11.248Z,21.55
2023-06-04T17:53:37.769Z,21.45
2023-06-04T17:56:04.402Z,21.37
2023-06-04T17:58:31.163Z,21.33
2023-06-04T18:00:57.802Z,21.27
2023-06-04T18:03:24.606Z,21.21
2023-06-04T18:05:51.199Z,21.17
2023-06-04T18:08:17.905Z,21.11
2023-06-04T18:10:44.525Z,21.13
2023-06-04T18:13:12.109Z,21.10
2023-06-04T18:15:38.746Z,21.05
2023-06-04T18:18:05.447Z,21.01
2023-06-04T18:20:32.274Z,20.96
2023-06-04T18:22:58.821Z,20.90
2023-06-04T18:25:26.001Z,20.85
2023-06-04T18:27:52.637Z,20.79
2023-06-04T18:30:19.307Z,20.73
2023-06-04T18:32:48.314Z,20.67
2023-06-04T18:35:16.032Z,20.61
2023-06-04T18:37:43.570Z,20.58
2023-06-04T18:40:13.029Z,20.51
2023-06-04T18:42:39.871Z,20.43
2023-06-04T18:45:10.261Z,20.40
2023-06-04T18:47:38.012Z,20.34
2023-06-04T18:50:05.521Z,20.31
2023-06-04T18:52:34.237Z,20.29
2023-06-04T18:55:01.818Z,20.20
2023-06-04T18:57:28.603Z,20.15
2023-06-04T18:59:55.388Z,20.09
2023-06-04T19:02:22.067Z,20.08
2023-06-04T19:04:48.717Z,20.03
2023-06-04T19:07:15.342Z,20.00
2023-06-04T19:09:41.956Z,19.97
2023-06-04T19:12:08.693Z,19.95
2023-06-04T19:14:35.281Z,19.92
2023-06-04T19:17:03.105Z,19.88
2023-06-04T19:19:29.741Z,19.85
2023-06-04T19:21:56.256Z,19.83
2023-06-04T19:24:22.851Z,19.80
2023-06-04T19:26:50.133Z,19.77
2023-06-04T19:29:16.780Z,19.72
2023-06-04T19:31:43.396Z,19.68
2023-06-04T19:34:10.042Z,19.66
2023-06-04T19:36:36.659Z,19.62
2023-06-04T19:39:03.265Z,19.59
2023-06-04T19:41:29.846Z,19.55
2023-06-04T19:43:56.439Z,19.53
2023-06-04T19:46:23.164Z,19.49
2023-06-04T19:48:49.832Z,19.48
2023-06-04T19:51:16.351Z,19.47
2023-06-04T19:53:42.870Z,19.44
2023-06-04T19:56:09.583Z,19.41
2023-06-04T19:58:36.544Z,19.32
2023-06-04T20:01:03.307Z,19.28
2023-06-04T20:03:32.317Z,19.25
2023-06-04T20:05:59.124Z,19.17
2023-06-04T20:08:25.665Z,19.12
2023-06-04T20:10:52.181Z,19.09
2023-06-04T20:13:18.942Z,19.07
2023-06-04T20:15:45.644Z,19.09
2023-06-04T20:18:13.206Z,19.05
2023-06-04T20:20:39.896Z,19.05
2023-06-04T20:23:06.753Z,19.02
2023-06-04T20:25:33.743Z,19.00
2023-06-04T20:28:00.473Z,19.01
2023-06-04T20:30:27.179Z,19.03
2023-06-04T20:32:56.671Z,19.03
2023-06-04T20:35:23.297Z,19.02
2023-06-04T20:37:50.130Z,19.01
2023-06-04T20:40:17.050Z,18.98
2023-06-04T20:42:43.724Z,18.96
2023-06-04T20:45:10.743Z,18.93
2023-06-04T20:47:37.400Z,18.86
2023-06-04T20:50:04.145Z,18.87
2023-06-04T20:52:30.764Z,18.84
2023-06-04T20:54:57.314Z,18.78
2023-06-04T20:57:23.927Z,18.75
2023-06-04T20:59:50.533Z,18.74
2023-06-04T21:02:17.257Z,18.72
2023-06-04T21:04:43.883Z,18.69
2023-06-04T21:07:12.414Z,18.67
2023-06-04T21:09:39.383Z,18.67
2023-06-04T21:12:06.999Z,18.66
2023-06-04T21:14:33.568Z,18.62
2023-06-04T21:17:00.372Z,18.60
2023-06-04T21:19:29.624Z,18.59
2023-06-04T21:21:57.164Z,18.60
2023-06-04T21:24:23.791Z,18.57
2023-06-04T21:26:50.418Z,18.58
2023-06-04T21:29:16.967Z,18.55
2023-06-04T21:31:43.622Z,18.53
2023-06-04T21:34:10.841Z,18.51
2023-06-04T21:36:37.501Z,18.51
2023-06-04T21:39:04.467Z,18.46
2023-06-04T21:41:31.288Z,18.44
2023-06-04T21:43:57.862Z,18.41
2023-06-04T21:46:25.080Z,18.39
2023-06-04T21:48:51.802Z,18.35
2023-06-04T21:51:18.388Z,18.35
2023-06-04T21:53:44.992Z,18.35
2023-06-04T21:56:11.485Z,18.33
2023-06-04T21:58:38.034Z,18.31
2023-06-04T22:01:04.707Z,18.28
2023-06-04T22:03:31.589Z,18.27
2023-06-04T22:05:58.304Z,18.27
2023-06-04T22:08:24.846Z,18.26
2023-06-04T22:10:51.758Z,18.23
2023-06-04T22:13:18.318Z,18.22
2023-06-04T22:15:45.013Z,18.19
2023-06-04T22:18:11.615Z,18.17
2023-06-04T22:20:38.240Z,18.15
2023-06-04T22:23:04.774Z,18.14
2023-06-04T22:25:31.411Z,18.10
2023-06-04T22:27:57.957Z,18.09
2023-06-04T22:30:24.509Z,18.05
2023-06-04T22:32:51.240Z,18.03
2023-06-04T22:35:18.165Z,18.02
2023-06-04T22:37:44.717Z,17.99
2023-06-04T22:40:11.498Z,17.97
2023-06-04T22:42:38.111Z,17.95
2023-06-04T22:45:04.970Z,17.92
2023-06-04T22:47:31.583Z,17.91
2023-06-04T22:49:58.166Z,17.89
2023-06-04T22:52:24.806Z,17.86
2023-06-04T22:54:51.389Z,17.84
2023-06-04T22:57:17.964Z,17.84
2023-06-04T22:59:44.526Z,17.84
2023-06-04T23:02:13.411Z,17.80
2023-06-04T23:04:40.011Z,17.78
2023-06-04T23:07:06.612Z,17.76
2023-06-04T23:09:33.143Z,17.69
2023-06-04T23:11:59.761Z,17.68
2023-06-04T23:14:26.337Z,17.66
2023-06-04T23:16:56.707Z,17.62
2023-06-04T23:19:23.251Z,17.59
2023-06-04T23:21:49.858Z,17.58
2023-06-04T23:24:16.532Z,17.55
2023-06-04T23:26:43.085Z,17.53
2023-06-04T23:29:09.646Z,17.52
2023-06-04T23:31:36.317Z,17.52
2023-06-04T23:34:03.013Z,17.51
2023-06-04T23:36:30.478Z,17.52
2023-06-04T23:38:57.006Z,17.48
2023-06-04T23:41:23.537Z,17.49
2023-06-04T23:43:50.175Z,17.44
2023-06-04T23:46:16.866Z,17.40
2023-06-04T23:48:43.593Z,17.30
2023-06-04T23:51:10.720Z,17.26
2023-06-04T23:53:37.455Z,17.17
2023-06-04T23:56:03.993Z,17.09
2023-06-04T23:58:30.522Z,17.02
